createdAt,value
2022-12-16T00:00:08.761Z,97565.44
2022-12-16T00:02:35.963Z,97563.78
2022-12-16T00:05:03.987Z,97563.22
2022-12-16T00:07:30.682Z,97561.06
2022-12-16T00:09:57.387Z,97571.19
2022-12-16T00:12:24.134Z,97572.25
2022-12-16T00:14:51.432Z,97570.69
2022-12-16T00:17:18.633Z,97573.84
2022-12-16T00:19:45.354Z,97573.84
2022-12-16T00:22:12.069Z,97571.94
2022-12-16T00:24:38.840Z,97571.34
2022-12-16T00:27:05.681Z,97578.03
2022-12-16T00:29:32.565Z,97579.38
2022-12-16T00:31:59.390Z,97580.69
2022-12-16T00:34:26.249Z,97582.53
2022-12-16T00:36:53.024Z,97583.09
2022-12-16T00:39:19.725Z,97576.47
2022-12-16T00:41:47.664Z,97582.38
2022-12-16T00:44:14.456Z,97576.50
2022-12-16T00:46:41.223Z,97585.78
2022-12-16T00:49:07.922Z,97585.25
2022-12-16T00:51:34.873Z,97597.25
2022-12-16T00:54:01.673Z,97601.81
2022-12-16T00:56:28.635Z,97605.78
2022-12-16T00:58:56.016Z,97614.56
2022-12-16T01:01:22.925Z,97619.69
2022-12-16T01:03:49.853Z,97617.81
2022-12-16T01:06:18.232Z,97624.97
2022-12-16T01:08:48.783Z,97613.47
2022-12-16T01:11:17.907Z,97625.22
2022-12-16T01:13:46.182Z,97614.56
2022-12-16T01:16:12.867Z,97616.44
2022-12-16T01:18:39.831Z,97614.56
2022-12-16T01:21:08.496Z,97617.00
2022-12-16T01:23:35.931Z,97619.88
2022-12-16T01:26:03.029Z,97627.09
2022-12-16T01:28:30.417Z,97624.16
2022-12-16T01:31:01.658Z,97621.53
2022-12-16T01:33:30.915Z,97625.22
2022-12-16T01:36:01.335Z,97623.59
2022-12-16T01:38:28.339Z,97626.28
2022-12-16T01:40:55.356Z,97630.81
2022-12-16T01:43:29.255Z,97633.72
2022-12-16T01:46:23.678Z,97638.28
2022-12-16T01:49:01.154Z,97648.06
2022-12-16T01:51:34.274Z,97649.44
2022-12-16T01:54:10.040Z,97646.47
2022-12-16T01:56:41.894Z,97651.28
2022-12-16T01:59:10.256Z,97653.72
2022-12-16T02:01:37.435Z,97659.03
2022-12-16T02:04:04.841Z,97653.94
2022-12-16T02:06:31.938Z,97653.66
2022-12-16T02:09:00.858Z,97657.38
2022-12-16T02:12:13.851Z,97651.22
2022-12-16T02:15:00.012Z,97659.53
2022-12-16T02:17:46.994Z,97654.44
2022-12-16T02:20:37.216Z,97663.53
2022-12-16T02:23:23.866Z,97662.16
2022-12-16T02:26:40.667Z,97660.53
2022-12-16T02:29:18.759Z,97654.94
2022-12-16T02:32:03.950Z,97664.53
2022-12-16T02:34:39.751Z,97668.53
2022-12-16T02:38:01.026Z,97667.19
2022-12-16T02:40:46.544Z,97668.75
2022-12-16T02:43:23.901Z,97671.19
2022-12-16T02:45:51.016Z,97676.50
2022-12-16T02:48:17.747Z,97674.41
2022-12-16T02:50:50.690Z,97674.84
2022-12-16T02:53:20.549Z,97684.13
2022-12-16T02:56:00.957Z,97685.94
2022-12-16T02:58:43.032Z,97683.00
2022-12-16T03:01:40.561Z,97687.03
2022-12-16T03:04:07.592Z,97689.22
2022-12-16T03:06:37.208Z,97692.16
2022-12-16T03:09:08.616Z,97702.63
2022-12-16T03:11:36.672Z,97691.97
2022-12-16T03:14:11.207Z,97690.06
2022-12-16T03:16:38.893Z,97690.25
2022-12-16T03:19:09.457Z,97698.19
2022-12-16T03:21:52.737Z,97703.25
2022-12-16T03:24:20.212Z,97704.13
2022-12-16T03:26:56.007Z,97699.91
2022-12-16T03:29:46.640Z,97699.41
2022-12-16T03:32:37.774Z,97715.97
2022-12-16T03:35:22.033Z,97712.22
2022-12-16T03:37:53.034Z,97708.22
2022-12-16T03:40:21.552Z,97716.97
2022-12-16T03:42:49.335Z,97711.59
2022-12-16T03:45:24.265Z,97716.66
2022-12-16T03:47:52.354Z,97719.81
2022-12-16T03:50:25.520Z,97720.59
2022-12-16T03:52:52.256Z,97720.03
2022-12-16T03:55:18.925Z,97717.97
2022-12-16T03:57:45.589Z,97722.97
2022-12-16T04:00:13.008Z,97729.34
2022-12-16T04:02:39.853Z,97727.03
2022-12-16T04:05:06.938Z,97727.13
2022-12-16T04:07:33.942Z,97724.16
2022-12-16T04:10:00.801Z,97728.38
2022-12-16T04:12:46.211Z,97728.81
2022-12-16T04:15:31.575Z,97728.56
2022-12-16T04:18:30.655Z,97737.91
2022-12-16T04:21:15.941Z,97738.72
2022-12-16T04:24:11.134Z,97741.59
2022-12-16T04:26:56.476Z,97746.19
2022-12-16T04:29:23.537Z,97746.44
2022-12-16T04:31:51.924Z,97757.34
2022-12-16T04:34:29.030Z,97758.44
2022-12-16T04:37:20.458Z,97753.97
2022-12-16T04:40:05.829Z,97758.44
2022-12-16T04:42:51.904Z,97758.94
2022-12-16T04:45:37.532Z,97763.22
2022-12-16T04:48:23.022Z,97763.22
2022-12-16T04:51:08.276Z,97758.94
2022-12-16T04:53:53.676Z,97768.03
2022-12-16T04:56:39.032Z,97772.06
2022-12-16T04:59:24.907Z,97779.25
2022-12-16T05:02:10.229Z,97787.22
2022-12-16T05:04:55.703Z,97796.28
2022-12-16T05:07:41.051Z,97790.94
2022-12-16T05:10:26.871Z,97790.44
2022-12-16T05:13:27.354Z,97796.81
2022-12-16T05:16:12.882Z,97802.44
2022-12-16T05:18:58.224Z,97805.38
2022-12-16T05:21:43.900Z,97809.09
2022-12-16T05:24:29.232Z,97807.97
2022-12-16T05:27:14.689Z,97810.84
2022-12-16T05:30:00.115Z,97821.84
2022-12-16T05:32:45.534Z,97818.69
2022-12-16T05:35:30.923Z,97827.66
2022-12-16T05:38:16.398Z,97833.47
2022-12-16T05:41:01.895Z,97836.19
2022-12-16T05:43:47.267Z,97847.34
2022-12-16T05:46:32.841Z,97843.63
2022-12-16T05:49:18.454Z,97845.28
2022-12-16T05:52:03.888Z,97851.66
2022-12-16T05:54:49.438Z,97859.03
2022-12-16T05:57:34.851Z,97873.94
2022-12-16T06:00:20.303Z,97876.53
2022-12-16T06:03:05.657Z,97880.47
2022-12-16T06:05:51.091Z,97888.16
2022-12-16T06:08:36.543Z,97889.22
2022-12-16T06:11:22.009Z,97889.44
2022-12-16T06:14:07.623Z,97896.72
2022-12-16T06:16:53.060Z,97904.13
2022-12-16T06:19:38.612Z,97906.22
2022-12-16T06:22:24.315Z,97905.09
2022-12-16T06:25:09.700Z,97908.63
2022-12-16T06:27:55.794Z,97913.41
2022-12-16T06:30:41.192Z,97921.38
2022-12-16T06:33:26.676Z,97926.38
2022-12-16T06:36:12.320Z,97934.03
2022-12-16T06:38:57.689Z,97937.50
2022-12-16T06:41:43.118Z,97945.41
2022-12-16T06:44:28.370Z,97952.81
2022-12-16T06:47:13.916Z,97952.00
2022-12-16T06:49:59.291Z,97960.16
2022-12-16T06:52:44.561Z,97963.59
2022-12-16T06:55:30.055Z,97972.16
2022-12-16T06:58:16.975Z,97972.63
2022-12-16T07:01:03.128Z,97976.41
2022-12-16T07:03:48.559Z,97973.63
2022-12-16T07:06:33.896Z,97981.81
2022-12-16T07:09:19.383Z,97983.75
2022-12-16T07:12:04.668Z,97990.03
2022-12-16T07:14:50.048Z,97999.13
2022-12-16T07:17:35.662Z,97996.06
2022-12-16T07:20:21.115Z,98001.03
2022-12-16T07:23:12.151Z,98014.81
2022-12-16T07:26:01.448Z,98016.81
2022-12-16T07:28:46.887Z,98019.25
2022-12-16T07:31:32.606Z,98032.53
2022-12-16T07:34:18.106Z,98028.25
2022-12-16T07:37:03.400Z,98036.13
2022-12-16T07:39:52.922Z,98037.88
2022-12-16T07:42:40.547Z,98043.56
2022-12-16T07:45:26.516Z,98041.56
2022-12-16T07:48:12.044Z,98053.00
2022-12-16T07:50:57.621Z,98061.44
2022-12-16T07:53:43.446Z,98064.91
2022-12-16T07:56:28.759Z,98063.78
2022-12-16T07:59:14.701Z,98080.75
2022-12-16T08:02:00.162Z,98077.06
2022-12-16T08:04:45.712Z,98076.59
2022-12-16T08:07:31.157Z,98087.69
2022-12-16T08:10:16.350Z,98094.94
2022-12-16T08:13:01.935Z,98103.97
2022-12-16T08:15:47.246Z,98098.78
2022-12-16T08:18:32.925Z,98096.50
2022-12-16T08:21:18.401Z,98110.00
2022-12-16T08:24:03.904Z,98104.56
2022-12-16T08:26:49.277Z,98104.22
2022-12-16T08:29:44.249Z,98117.84
2022-12-16T08:32:31.311Z,98127.66
2022-12-16T08:35:17.176Z,98129.28
2022-12-16T08:38:02.744Z,98130.22
2022-12-16T08:40:48.181Z,98139.53
2022-12-16T08:43:34.630Z,98144.06
2022-12-16T08:46:20.589Z,98149.97
2022-12-16T08:49:06.346Z,98146.84
2022-12-16T08:51:51.963Z,98151.25
2022-12-16T08:54:37.348Z,98152.84
2022-12-16T08:57:22.806Z,98149.59
2022-12-16T09:00:08.278Z,98156.19
2022-12-16T09:02:54.677Z,98157.25
2022-12-16T09:05:41.617Z,98157.47
2022-12-16T09:08:28.038Z,98166.13
2022-12-16T09:11:13.320Z,98178.25
2022-12-16T09:13:58.760Z,98178.72
2022-12-16T09:16:44.212Z,98179.19
2022-12-16T09:19:29.770Z,98186.69
2022-12-16T09:22:15.190Z,98200.69
2022-12-16T09:25:00.561Z,98196.88
2022-12-16T09:27:45.967Z,98193.84
2022-12-16T09:30:31.449Z,98196.50
2022-12-16T09:33:17.090Z,98203.44
2022-12-16T09:36:02.632Z,98205.53
2022-12-16T09:38:48.135Z,98210.25
2022-12-16T09:41:44.605Z,98207.25
2022-12-16T09:44:42.408Z,98209.66
2022-12-16T09:47:46.262Z,98211.84
2022-12-16T09:50:44.659Z,98215.19
2022-12-16T09:53:37.305Z,98219.09
2022-12-16T09:56:32.212Z,98219.94
2022-12-16T09:59:20.710Z,98215.41
2022-12-16T10:02:06.318Z,98220.25
2022-12-16T10:04:51.685Z,98220.94
2022-12-16T10:07:40.690Z,98224.22
2022-12-16T10:10:47.381Z,98220.41
2022-12-16T10:13:40.438Z,98224.91
2022-12-16T10:16:50.911Z,98223.28
2022-12-16T10:19:46.187Z,98217.69
2022-12-16T10:22:43.090Z,98214.81
2022-12-16T10:25:40.630Z,98214.47
2022-12-16T10:29:03.955Z,98219.78
2022-12-16T10:31:50.348Z,98213.53
2022-12-16T10:34:43.327Z,98219.19
2022-12-16T10:37:58.437Z,98221.25
2022-12-16T10:40:48.920Z,98226.13
2022-12-16T10:43:47.360Z,98223.81
2022-12-16T10:46:39.371Z,98228.19
2022-12-16T10:49:32.253Z,98225.06
2022-12-16T10:52:17.825Z,98227.94
2022-12-16T10:55:13.185Z,98229.44
2022-12-16T10:58:47.254Z,98238.59
2022-12-16T11:01:42.010Z,98232.00
2022-12-16T11:04:50.031Z,98234.66
2022-12-16T11:07:45.718Z,98232.56
2022-12-16T11:10:45.422Z,98240.97
2022-12-16T11:13:43.606Z,98248.59
2022-12-16T11:16:32.935Z,98244.09
2022-12-16T11:19:18.927Z,98245.34
2022-12-16T11:22:04.916Z,98244.00
2022-12-16T11:24:50.886Z,98239.47
2022-12-16T11:27:39.641Z,98242.22
2022-12-16T11:30:41.919Z,98247.22
2022-12-16T11:33:41.826Z,98251.72
2022-12-16T11:36:40.475Z,98258.81
2022-12-16T11:39:31.881Z,98270.63
2022-12-16T11:42:19.107Z,98263.88
2022-12-16T11:45:18.585Z,98263.38
2022-12-16T11:48:14.083Z,98267.31
2022-12-16T11:51:07.081Z,98266.06
2022-12-16T11:54:19.588Z,98271.69
2022-12-16T11:57:05.728Z,98281.31
2022-12-16T12:00:01.300Z,98282.22
2022-12-16T12:03:08.972Z,98288.44
2022-12-16T12:06:04.054Z,98291.53
2022-12-16T12:09:20.870Z,98297.22
2022-12-16T12:12:19.619Z,98301.06
2022-12-16T12:15:52.271Z,98299.25
2022-12-16T12:18:55.583Z,98301.34
2022-12-16T12:21:47.846Z,98299.91
2022-12-16T12:24:40.906Z,98305.72
2022-12-16T12:27:42.920Z,98310.09
2022-12-16T12:30:39.593Z,98313.41
2022-12-16T12:33:45.703Z,98314.69
2022-12-16T12:36:44.678Z,98322.22
2022-12-16T12:39:41.625Z,98323.47
2022-12-16T12:42:49.751Z,98326.94
2022-12-16T12:46:05.848Z,98331.38
2022-12-16T12:48:57.907Z,98339.25
2022-12-16T12:52:12.829Z,98335.09
2022-12-16T12:55:04.248Z,98332.44
2022-12-16T12:57:53.067Z,98331.56
2022-12-16T13:00:45.578Z,98333.31
2022-12-16T13:03:34.711Z,98326.63
2022-12-16T13:06:21.903Z,98339.69
2022-12-16T13:09:07.302Z,98338.97
2022-12-16T13:11:53.222Z,98337.13
2022-12-16T13:14:49.565Z,98342.22
2022-12-16T13:17:35.735Z,98343.25
2022-12-16T13:20:22.696Z,98345.69
2022-12-16T13:23:08.002Z,98342.63
2022-12-16T13:26:10.843Z,98354.41
2022-12-16T13:29:01.554Z,98351.81
2022-12-16T13:31:49.145Z,98356.81
2022-12-16T13:34:34.701Z,98366.84
2022-12-16T13:37:30.995Z,98365.47
2022-12-16T13:40:38.199Z,98381.94
2022-12-16T13:43:24.549Z,98369.81
2022-12-16T13:46:16.386Z,98377.78
2022-12-16T13:49:02.053Z,98375.25
2022-12-16T13:51:58.847Z,98385.22
2022-12-16T13:54:57.424Z,98394.25
2022-12-16T13:57:45.185Z,98403.75
2022-12-16T14:00:42.976Z,98410.25
2022-12-16T14:03:36.901Z,98408.03
2022-12-16T14:06:29.268Z,98420.75
2022-12-16T14:09:23.093Z,98425.59
2022-12-16T14:12:17.942Z,98432.06
2022-12-16T14:15:24.661Z,98425.38
2022-12-16T14:18:28.938Z,98434.75
2022-12-16T14:21:20.482Z,98433.22
2022-12-16T14:24:40.357Z,98440.91
2022-12-16T14:27:40.475Z,98447.28
2022-12-16T14:30:43.722Z,98454.06
2022-12-16T14:33:47.579Z,98458.72
2022-12-16T14:36:41.755Z,98469.84
2022-12-16T14:39:41.836Z,98467.19
2022-12-16T14:42:48.308Z,98471.84
2022-12-16T14:45:46.756Z,98477.53
2022-12-16T14:48:52.475Z,98482.97
2022-12-16T14:51:50.679Z,98489.13
2022-12-16T14:54:37.156Z,98495.94
2022-12-16T14:57:22.927Z,98496.41
2022-12-16T15:00:22.571Z,98493.16
2022-12-16T15:03:10.119Z,98495.22
2022-12-16T15:05:57.683Z,98503.94
2022-12-16T15:08:45.293Z,98494.22
2022-12-16T15:11:35.030Z,98504.19
2022-12-16T15:14:21.489Z,98497.69
2022-12-16T15:17:08.485Z,98505.53
2022-12-16T15:20:05.067Z,98500.81
2022-12-16T15:22:51.105Z,98505.91
2022-12-16T15:25:42.823Z,98516.56
2022-12-16T15:28:56.262Z,98519.09
2022-12-16T15:31:50.284Z,98528.50
2022-12-16T15:34:38.623Z,98529.16
2022-12-16T15:37:35.139Z,98529.06
2022-12-16T15:40:29.643Z,98533.44
2022-12-16T15:43:18.028Z,98550.13
2022-12-16T15:46:08.044Z,98548.88
2022-12-16T15:48:56.494Z,98562.06
2022-12-16T15:51:45.163Z,98565.38
2022-12-16T15:54:37.492Z,98575.13
2022-12-16T15:57:42.614Z,98587.31
2022-12-16T16:00:36.786Z,98580.47
2022-12-16T16:03:22.523Z,98597.84
2022-12-16T16:06:07.927Z,98595.97
2022-12-16T16:08:53.529Z,98598.88
2022-12-16T16:11:38.904Z,98600.03
2022-12-16T16:14:24.188Z,98594.34
2022-12-16T16:17:09.985Z,98595.16
2022-12-16T16:20:00.122Z,98598.41
2022-12-16T16:22:48.384Z,98595.16
2022-12-16T16:25:34.005Z,98611.59
2022-12-16T16:28:19.425Z,98616.56
2022-12-16T16:31:04.979Z,98616.44
2022-12-16T16:33:50.550Z,98629.06
2022-12-16T16:36:36.367Z,98628.38
2022-12-16T16:39:21.885Z,98634.72
2022-12-16T16:42:07.352Z,98626.16
2022-12-16T16:44:52.659Z,98635.06
2022-12-16T16:47:38.125Z,98639.59
2022-12-16T16:50:24.961Z,98636.44
2022-12-16T16:53:10.384Z,98647.66
2022-12-16T16:55:55.739Z,98646.88
2022-12-16T16:58:46.633Z,98653.69
2022-12-16T17:01:35.224Z,98650.97
2022-12-16T17:04:21.517Z,98651.41
2022-12-16T17:07:07.065Z,98656.75
2022-12-16T17:09:52.570Z,98657.19
2022-12-16T17:12:40.173Z,98667.00
2022-12-16T17:15:38.092Z,98659.03
2022-12-16T17:18:24.515Z,98668.63
2022-12-16T17:21:10.461Z,98677.44
2022-12-16T17:23:56.418Z,98678.63
2022-12-16T17:26:43.026Z,98678.69
2022-12-16T17:29:40.500Z,98689.59
2022-12-16T17:32:25.986Z,98688.09
2022-12-16T17:35:11.392Z,98694.09
2022-12-16T17:37:57.504Z,98696.28
2022-12-16T17:40:43.175Z,98702.84
2022-12-16T17:43:28.733Z,98699.97
2022-12-16T17:46:19.182Z,98700.31
2022-12-16T17:49:09.229Z,98708.53
2022-12-16T17:51:55.053Z,98711.78
2022-12-16T17:54:40.495Z,98715.50
2022-12-16T17:57:25.879Z,98722.16
2022-12-16T18:00:11.245Z,98728.97
2022-12-16T18:02:56.841Z,98726.78
2022-12-16T18:05:44.671Z,98725.84
2022-12-16T18:08:30.384Z,98735.00
2022-12-16T18:11:22.449Z,98730.88
2022-12-16T18:14:07.812Z,98732.72
2022-12-16T18:16:53.164Z,98735.38
2022-12-16T18:19:38.702Z,98732.72
2022-12-16T18:22:24.144Z,98737.69
2022-12-16T18:25:10.019Z,98737.69
2022-12-16T18:27:56.097Z,98743.22
2022-12-16T18:30:41.471Z,98742.41
2022-12-16T18:33:27.091Z,98748.97
2022-12-16T18:36:12.720Z,98757.22
2022-12-16T18:38:57.996Z,98761.25
2022-12-16T18:41:43.379Z,98759.41
2022-12-16T18:44:31.834Z,98765.34
2022-12-16T18:47:17.706Z,98773.75
2022-12-16T18:50:13.897Z,98773.38
2022-12-16T18:53:03.550Z,98774.06
2022-12-16T18:55:48.944Z,98778.63
2022-12-16T18:58:50.727Z,98782.16
2022-12-16T19:01:37.211Z,98783.94
2022-12-16T19:04:22.720Z,98778.84
2022-12-16T19:07:08.045Z,98797.25
2022-12-16T19:09:53.316Z,98800.06
2022-12-16T19:12:38.928Z,98803.00
2022-12-16T19:15:24.989Z,98811.44
2022-12-16T19:18:11.580Z,98810.25
2022-12-16T19:20:57.001Z,98817.88
2022-12-16T19:23:42.706Z,98822.59
2022-12-16T19:26:29.016Z,98822.34
2022-12-16T19:29:14.395Z,98828.88
2022-12-16T19:31:59.885Z,98826.00
2022-12-16T19:34:45.384Z,98831.69
2022-12-16T19:37:31.001Z,98839.31
2022-12-16T19:40:16.560Z,98840.94
2022-12-16T19:43:02.010Z,98840.69
2022-12-16T19:45:47.667Z,98839.50
2022-12-16T19:48:33.300Z,98850.16
2022-12-16T19:51:20.203Z,98858.13
2022-12-16T19:54:06.787Z,98857.09
2022-12-16T19:56:52.578Z,98855.03
2022-12-16T19:59:40.779Z,98856.66
2022-12-16T20:02:30.212Z,98861.97
2022-12-16T20:05:15.742Z,98867.75
2022-12-16T20:08:01.457Z,98863.44
2022-12-16T20:10:46.936Z,98876.91
2022-12-16T20:13:32.311Z,98883.06
2022-12-16T20:16:26.317Z,98893.47
2022-12-16T20:19:11.780Z,98892.88
2022-12-16T20:22:00.692Z,98899.66
2022-12-16T20:24:50.130Z,98901.56
2022-12-16T20:27:35.651Z,98903.03
2022-12-16T20:30:21.253Z,98906.69
2022-12-16T20:33:06.629Z,98898.88
2022-12-16T20:35:56.138Z,98897.16
2022-12-16T20:38:41.678Z,98893.25
2022-12-16T20:41:27.355Z,98902.38
2022-12-16T20:44:12.649Z,98898.94
2022-12-16T20:46:58.307Z,98905.25
2022-12-16T20:49:43.978Z,98906.06
2022-12-16T20:52:29.575Z,98914.72
2022-12-16T20:55:15.994Z,98916.34
2022-12-16T20:58:03.384Z,98916.19
2022-12-16T21:00:48.945Z,98923.72
2022-12-16T21:03:34.384Z,98934.38
2022-12-16T21:06:19.796Z,98940.72
2022-12-16T21:09:05.317Z,98942.16
2022-12-16T21:11:50.789Z,98945.84
2022-12-16T21:14:37.101Z,98952.44
2022-12-16T21:17:22.471Z,98955.78
2022-12-16T21:20:07.931Z,98952.09
2022-12-16T21:22:53.461Z,98954.16
2022-12-16T21:25:38.857Z,98958.81
2022-12-16T21:28:24.337Z,98960.06
2022-12-16T21:31:09.758Z,98977.47
2022-12-16T21:33:55.383Z,98974.81
2022-12-16T21:36:41.058Z,98980.78
2022-12-16T21:39:26.534Z,98977.94
2022-12-16T21:42:12.100Z,98979.19
2022-12-16T21:45:17.354Z,98979.81
2022-12-16T21:48:13.291Z,98985.34
2022-12-16T21:50:58.878Z,98979.63
2022-12-16T21:53:44.760Z,98991.25
2022-12-16T21:56:30.697Z,98999.03
2022-12-16T21:59:18.582Z,98999.84
2022-12-16T22:02:04.657Z,99021.50
2022-12-16T22:04:50.332Z,99015.16
2022-12-16T22:07:35.756Z,99022.53
2022-12-16T22:10:22.758Z,99026.63
2022-12-16T22:13:08.351Z,99033.56
2022-12-16T22:15:58.110Z,99042.56
2022-12-16T22:18:46.406Z,99045.81
2022-12-16T22:21:31.884Z,99050.34
2022-12-16T22:24:17.938Z,99049.06
2022-12-16T22:27:03.361Z,99051.53
2022-12-16T22:29:48.939Z,99050.94
2022-12-16T22:32:34.385Z,99050.94
2022-12-16T22:35:20.058Z,99055.03
2022-12-16T22:38:05.430Z,99065.63
2022-12-16T22:40:51.002Z,99067.88
2022-12-16T22:43:37.735Z,99071.56
2022-12-16T22:46:23.363Z,99077.09
2022-12-16T22:49:09.562Z,99072.38
2022-12-16T22:51:54.866Z,99081.75
2022-12-16T22:54:42.291Z,99082.19
2022-12-16T22:57:28.047Z,99083.00
2022-12-16T23:00:13.379Z,99085.03
2022-12-16T23:03:21.135Z,99086.47
2022-12-16T23:06:07.222Z,99093.22
2022-12-16T23:08:52.508Z,99100.56
2022-12-16T23:11:56.427Z,99087.09
2022-12-16T23:17:47.633Z,99094.63
2022-12-16T23:20:33.280Z,99087.91
2022-12-16T23:23:18.726Z,99090.38
2022-12-16T23:26:17.644Z,99093.00
2022-12-16T23:29:03.028Z,99093.03
2022-12-16T23:31:48.638Z,99091.78
2022-12-16T23:34:43.899Z,99101.38
2022-12-16T23:37:31.341Z,99101.56
2022-12-16T23:40:16.770Z,99103.00
2022-12-16T23:43:02.210Z,99099.09
2022-12-16T23:45:47.414Z,99095.59
2022-12-16T23:48:33.161Z,99106.22
2022-12-16T23:51:18.658Z,99102.16
2022-12-16T23:54:08.875Z,99104.56
2022-12-16T23:56:56.398Z,99121.28
2022-12-16T23:59:42.011Z,99117.19
